createdAt,value
2023-03-26T00:01:32.168Z,50.63
2023-03-26T00:03:59.508Z,50.96
2023-03-26T00:06:37.591Z,51.04
2023-03-26T00:09:06.973Z,51.00
2023-03-26T00:11:34.364Z,52.47
2023-03-26T00:14:00.838Z,52.40
2023-03-26T00:16:29.699Z,53.05
2023-03-26T00:18:57.017Z,53.70
2023-03-26T00:21:25.461Z,52.43
2023-03-26T00:23:52.106Z,53.03
2023-03-26T00:26:18.565Z,52.96
2023-03-26T00:28:45.046Z,52.48
2023-03-26T00:31:14.539Z,52.76
2023-03-26T00:33:42.171Z,53.60
2023-03-26T00:36:16.137Z,53.23
2023-03-26T00:38:44.923Z,53.88
2023-03-26T00:41:14.103Z,53.45
2023-03-26T00:43:40.568Z,54.33
2023-03-26T00:46:07.043Z,54.30
2023-03-26T00:48:44.588Z,54.75
2023-03-26T00:51:14.485Z,55.25
2023-03-26T00:53:42.115Z,53.60
2023-03-26T00:56:09.438Z,54.09
2023-03-26T00:58:36.172Z,54.71
2023-03-26T01:01:06.624Z,54.00
2023-03-26T01:03:36.283Z,54.07
2023-03-26T01:06:05.662Z,54.21
2023-03-26T01:08:40.013Z,54.17
2023-03-26T01:11:11.559Z,53.59
2023-03-26T01:13:38.868Z,54.09
2023-03-26T01:16:15.850Z,53.50
2023-03-26T01:18:42.387Z,53.96
2023-03-26T01:21:08.893Z,54.54
2023-03-26T01:23:42.889Z,54.01
2023-03-26T01:26:27.393Z,54.77
2023-03-26T01:28:59.456Z,54.87
2023-03-26T01:31:34.682Z,54.91
2023-03-26T01:34:30.740Z,54.12
2023-03-26T01:37:12.875Z,53.99
2023-03-26T01:39:54.838Z,53.10
2023-03-26T01:42:43.546Z,53.20
2023-03-26T01:45:16.320Z,53.03
2023-03-26T01:47:45.078Z,52.60
2023-03-26T01:50:12.657Z,52.02
2023-03-26T01:52:39.126Z,52.23
2023-03-26T01:55:08.417Z,52.38
2023-03-26T01:57:45.434Z,52.73
2023-03-26T02:00:27.946Z,50.78
2023-03-26T02:03:15.683Z,50.19
2023-03-26T02:05:52.379Z,50.59
2023-03-26T02:08:34.032Z,50.19
2023-03-26T02:11:09.358Z,50.31
2023-03-26T02:13:37.200Z,49.85
2023-03-26T02:16:07.656Z,49.43
2023-03-26T02:18:35.361Z,48.66
2023-03-26T02:21:07.464Z,49.16
2023-03-26T02:23:33.915Z,50.10
2023-03-26T02:26:00.383Z,49.37
2023-03-26T02:28:26.940Z,50.04
2023-03-26T02:30:53.541Z,51.03
2023-03-26T02:33:20.013Z,50.23
2023-03-26T02:35:46.557Z,52.72
2023-03-26T02:38:13.136Z,53.18
2023-03-26T02:40:40.127Z,54.02
2023-03-26T02:43:07.122Z,54.10
2023-03-26T02:45:33.709Z,54.20
2023-03-26T02:48:00.222Z,54.66
2023-03-26T02:50:26.904Z,54.61
2023-03-26T02:52:53.349Z,54.54
2023-03-26T02:55:19.866Z,54.96
2023-03-26T02:57:46.413Z,55.36
2023-03-26T03:00:13.397Z,55.78
2023-03-26T03:02:39.966Z,55.11
2023-03-26T03:05:06.764Z,56.44
2023-03-26T03:07:33.325Z,56.58
2023-03-26T03:09:59.848Z,58.71
2023-03-26T03:12:26.298Z,58.83
2023-03-26T03:14:52.773Z,59.36
2023-03-26T03:17:19.287Z,58.72
2023-03-26T03:19:45.733Z,59.43
2023-03-26T03:22:12.338Z,59.55
2023-03-26T03:24:38.820Z,60.17
2023-03-26T03:27:05.732Z,59.52
2023-03-26T03:29:32.260Z,59.22
2023-03-26T03:31:58.731Z,62.83
2023-03-26T03:34:25.217Z,64.03
2023-03-26T03:36:51.780Z,63.29
2023-03-26T03:39:18.232Z,63.27
2023-03-26T03:41:44.721Z,62.27
2023-03-26T03:44:11.218Z,63.28
2023-03-26T03:46:37.814Z,63.23
2023-03-26T03:49:04.315Z,62.34
2023-03-26T03:51:30.773Z,62.18
2023-03-26T03:53:57.235Z,62.39
2023-03-26T03:56:23.712Z,61.60
2023-03-26T03:58:50.532Z,62.47
2023-03-26T04:01:17.151Z,61.80
2023-03-26T04:03:43.936Z,62.65
2023-03-26T04:06:10.482Z,61.09
2023-03-26T04:08:36.986Z,60.15
2023-03-26T04:11:03.561Z,59.12
2023-03-26T04:13:30.189Z,60.29
2023-03-26T04:15:56.980Z,60.98
2023-03-26T04:18:23.760Z,60.25
2023-03-26T04:20:50.211Z,59.83
2023-03-26T04:23:18.606Z,59.26
2023-03-26T04:25:49.310Z,58.70
2023-03-26T04:28:34.880Z,58.67
2023-03-26T04:31:03.133Z,59.26
2023-03-26T04:33:32.637Z,58.19
2023-03-26T04:36:00.556Z,59.02
2023-03-26T04:38:29.321Z,60.60
2023-03-26T04:40:55.782Z,61.14
2023-03-26T04:43:22.267Z,63.32
2023-03-26T04:45:48.755Z,63.76
2023-03-26T04:48:15.350Z,65.68
2023-03-26T04:50:45.048Z,65.69
2023-03-26T04:53:15.955Z,66.59
2023-03-26T04:56:00.133Z,66.32
2023-03-26T04:58:27.025Z,66.27
2023-03-26T05:00:53.583Z,67.05
2023-03-26T05:03:20.110Z,67.88
2023-03-26T05:05:46.740Z,68.15
2023-03-26T05:08:13.219Z,69.46
2023-03-26T05:10:39.758Z,70.04
2023-03-26T05:13:06.236Z,70.14
2023-03-26T05:15:32.725Z,70.76
2023-03-26T05:17:59.240Z,72.10
2023-03-26T05:20:28.471Z,72.43
2023-03-26T05:22:55.029Z,73.29
2023-03-26T05:25:21.746Z,76.70
2023-03-26T05:27:48.309Z,76.88
2023-03-26T05:30:20.069Z,76.10
2023-03-26T05:32:48.467Z,76.01
2023-03-26T05:35:16.029Z,75.80
2023-03-26T05:37:43.783Z,75.42
2023-03-26T05:40:12.093Z,73.84
2023-03-26T05:42:39.757Z,73.19
2023-03-26T05:45:07.940Z,71.96
2023-03-26T05:47:34.990Z,71.05
2023-03-26T05:50:01.634Z,70.66
2023-03-26T05:52:28.766Z,70.47
2023-03-26T05:54:55.276Z,70.26
2023-03-26T05:57:21.843Z,70.27
2023-03-26T05:59:48.443Z,70.92
2023-03-26T06:02:15.248Z,70.99
2023-03-26T06:04:41.889Z,72.95
2023-03-26T06:07:08.673Z,74.63
2023-03-26T06:09:35.785Z,75.16
2023-03-26T06:12:02.297Z,76.48
2023-03-26T06:14:28.762Z,78.73
2023-03-26T06:16:55.251Z,80.06
2023-03-26T06:19:21.762Z,79.14
2023-03-26T06:21:48.290Z,78.14
2023-03-26T06:24:14.932Z,78.90
2023-03-26T06:26:41.441Z,78.40
2023-03-26T06:29:08.511Z,79.26
2023-03-26T06:31:35.095Z,80.75
2023-03-26T06:34:01.624Z,80.57
2023-03-26T06:36:28.103Z,80.58
2023-03-26T06:38:54.595Z,80.05
2023-03-26T06:41:21.069Z,80.18
2023-03-26T06:43:47.589Z,80.52
2023-03-26T06:46:14.361Z,81.06
2023-03-26T06:48:41.464Z,78.92
2023-03-26T06:51:09.406Z,78.39
2023-03-26T06:53:35.897Z,77.98
2023-03-26T06:56:02.393Z,76.87
2023-03-26T06:58:29.405Z,76.48
2023-03-26T07:00:56.796Z,76.47
2023-03-26T07:03:23.968Z,74.15
2023-03-26T07:05:50.488Z,73.76
2023-03-26T07:08:16.941Z,74.01
2023-03-26T07:10:44.062Z,73.89
2023-03-26T07:13:10.775Z,74.43
2023-03-26T07:15:37.668Z,74.13
2023-03-26T07:18:04.465Z,74.42
2023-03-26T07:20:31.247Z,76.73
2023-03-26T07:22:57.964Z,78.15
2023-03-26T07:25:25.231Z,78.71
2023-03-26T07:27:54.725Z,80.65
2023-03-26T07:30:56.723Z,80.11
2023-03-26T07:33:52.949Z,81.27
2023-03-26T07:36:56.423Z,79.56
2023-03-26T07:39:55.696Z,79.23
2023-03-26T07:43:02.216Z,79.40
2023-03-26T07:45:39.896Z,78.47
2023-03-26T07:48:16.015Z,78.01
2023-03-26T07:50:42.839Z,77.08
2023-03-26T07:53:10.344Z,77.47
2023-03-26T07:55:52.980Z,78.47
2023-03-26T07:58:41.172Z,76.62
2023-03-26T08:01:43.809Z,77.34
2023-03-26T08:04:39.959Z,76.10
2023-03-26T08:07:51.344Z,76.66
2023-03-26T08:10:52.621Z,78.63
2023-03-26T08:14:09.754Z,79.84
2023-03-26T08:17:11.313Z,78.67
2023-03-26T08:20:11.719Z,78.15
2023-03-26T08:23:01.067Z,79.07
2023-03-26T08:26:13.858Z,77.18
2023-03-26T08:29:01.683Z,76.60
2023-03-26T08:31:50.190Z,77.65
2023-03-26T08:34:36.670Z,78.06
2023-03-26T08:37:23.527Z,77.44
2023-03-26T08:40:10.357Z,77.24
2023-03-26T08:43:31.487Z,77.74
2023-03-26T08:46:27.171Z,75.38
2023-03-26T08:49:31.947Z,75.40
2023-03-26T08:52:29.055Z,76.50
2023-03-26T08:55:13.891Z,76.56
2023-03-26T08:58:25.457Z,77.81
2023-03-26T09:01:29.277Z,77.77
2023-03-26T09:04:14.466Z,75.94
2023-03-26T09:07:07.767Z,78.13
2023-03-26T09:10:11.297Z,77.39
2023-03-26T09:13:14.867Z,78.57
2023-03-26T09:16:08.234Z,77.23
2023-03-26T09:19:02.542Z,78.54
2023-03-26T09:22:06.442Z,77.77
2023-03-26T09:24:51.517Z,79.10
2023-03-26T09:27:56.523Z,79.67
2023-03-26T09:30:40.978Z,81.91
2023-03-26T09:33:28.350Z,82.92
2023-03-26T09:36:18.515Z,82.34
2023-03-26T09:38:53.287Z,83.19
2023-03-26T09:41:38.263Z,83.44
2023-03-26T09:44:19.587Z,84.05
2023-03-26T09:46:57.738Z,82.13
2023-03-26T09:49:33.097Z,82.61
2023-03-26T09:52:23.919Z,83.83
2023-03-26T09:55:13.484Z,85.06
2023-03-26T09:58:01.587Z,85.16
2023-03-26T10:00:40.020Z,84.58
2023-03-26T10:03:30.898Z,84.25
2023-03-26T10:06:30.285Z,85.04
2023-03-26T10:09:19.590Z,84.85
2023-03-26T10:12:16.494Z,84.36
2023-03-26T10:15:28.880Z,83.62
2023-03-26T10:18:27.145Z,82.88
2023-03-26T10:21:10.606Z,82.35
2023-03-26T10:23:52.201Z,80.93
2023-03-26T10:26:35.019Z,81.12
2023-03-26T10:29:50.431Z,79.93
2023-03-26T10:32:19.948Z,79.22
2023-03-26T10:35:15.485Z,78.39
2023-03-26T10:38:01.573Z,76.66
2023-03-26T10:40:53.544Z,75.10
2023-03-26T10:44:01.603Z,74.75
2023-03-26T10:46:53.435Z,73.54
2023-03-26T10:49:50.715Z,73.96
2023-03-26T10:52:46.566Z,72.62
2023-03-26T10:55:35.044Z,71.51
2023-03-26T10:58:20.398Z,72.55
2023-03-26T11:01:04.148Z,70.05
2023-03-26T11:03:52.338Z,71.29
2023-03-26T11:06:33.821Z,73.06
2023-03-26T11:09:19.827Z,71.67
2023-03-26T11:12:00.902Z,71.11
2023-03-26T11:14:46.716Z,73.13
2023-03-26T11:17:41.581Z,72.85
2023-03-26T11:20:17.362Z,74.24
2023-03-26T11:23:08.442Z,73.78
2023-03-26T11:25:42.895Z,75.93
2023-03-26T11:29:05.860Z,79.33
2023-03-26T11:32:03.601Z,76.55
2023-03-26T11:35:00.660Z,79.73
2023-03-26T11:37:55.204Z,81.35
2023-03-26T11:40:31.829Z,78.79
2023-03-26T11:43:08.697Z,80.55
2023-03-26T11:45:39.065Z,78.20
2023-03-26T11:48:17.464Z,75.85
2023-03-26T11:50:53.827Z,77.26
2023-03-26T11:53:27.449Z,78.32
2023-03-26T11:56:03.021Z,80.78
2023-03-26T11:59:14.478Z,81.58
2023-03-26T12:01:44.165Z,84.42
2023-03-26T12:04:14.103Z,84.31
2023-03-26T12:06:56.080Z,82.47
2023-03-26T12:09:23.741Z,85.09
2023-03-26T12:11:59.660Z,87.04
2023-03-26T12:14:30.305Z,88.70
2023-03-26T12:17:05.468Z,88.66
2023-03-26T12:19:40.018Z,86.86
2023-03-26T12:22:28.129Z,86.51
2023-03-26T12:25:21.812Z,86.38
2023-03-26T12:27:50.897Z,85.37
2023-03-26T12:30:23.581Z,85.54
2023-03-26T12:32:53.229Z,82.46
2023-03-26T12:35:26.288Z,83.82
2023-03-26T12:37:54.480Z,82.55
2023-03-26T12:40:32.794Z,81.14
2023-03-26T12:44:47.107Z,78.45
2023-03-26T12:47:56.521Z,77.71
2023-03-26T12:48:40.944Z,77.20
2023-03-26T12:51:18.254Z,78.43
2023-03-26T12:53:58.687Z,78.71
2023-03-26T12:57:12.694Z,79.86
2023-03-26T12:59:59.348Z,83.01
2023-03-26T13:02:52.843Z,85.39
2023-03-26T13:05:34.552Z,83.93
2023-03-26T13:08:39.066Z,87.08
2023-03-26T13:11:19.892Z,90.51
2023-03-26T13:14:15.455Z,92.54
2023-03-26T13:16:53.151Z,90.66
2023-03-26T13:19:42.233Z,88.91
2023-03-26T13:22:33.353Z,90.04
2023-03-26T13:24:59.783Z,88.44
2023-03-26T13:27:39.846Z,86.34
2023-03-26T13:30:36.127Z,82.98
2023-03-26T13:33:24.287Z,84.31
2023-03-26T13:36:22.600Z,78.88
2023-03-26T13:38:59.263Z,77.64
2023-03-26T13:41:50.360Z,73.83
2023-03-26T13:44:44.757Z,73.19
2023-03-26T13:47:23.467Z,69.20
2023-03-26T13:49:56.825Z,67.79
2023-03-26T13:52:49.704Z,70.62
2023-03-26T13:55:22.074Z,71.05
2023-03-26T13:58:10.252Z,73.20
2023-03-26T14:01:00.822Z,72.41
2023-03-26T14:03:41.800Z,72.46
2023-03-26T14:06:26.362Z,71.82
2023-03-26T14:09:17.232Z,73.07
2023-03-26T14:11:57.843Z,72.06
2023-03-26T14:14:45.587Z,71.01
2023-03-26T14:17:23.188Z,69.66
2023-03-26T14:20:34.651Z,72.81
2023-03-26T14:23:42.350Z,72.28
2023-03-26T14:26:14.483Z,73.34
2023-03-26T14:29:02.669Z,72.33
2023-03-26T14:31:58.263Z,68.84
2023-03-26T14:34:39.777Z,69.61
2023-03-26T14:37:27.899Z,67.66
2023-03-26T14:40:31.259Z,68.66
2023-03-26T14:43:09.464Z,66.65
2023-03-26T14:46:03.565Z,66.55
2023-03-26T14:48:53.993Z,64.98
2023-03-26T14:51:49.660Z,65.60
2023-03-26T14:54:23.019Z,62.55
2023-03-26T14:57:14.259Z,62.32
2023-03-26T15:00:01.864Z,61.52
2023-03-26T15:02:46.501Z,61.42
2023-03-26T15:05:15.829Z,61.08
2023-03-26T15:08:11.723Z,60.86
2023-03-26T15:11:15.813Z,59.85
2023-03-26T15:14:14.201Z,60.88
2023-03-26T15:17:10.274Z,59.53
2023-03-26T15:20:13.291Z,60.29
2023-03-26T15:23:17.163Z,60.66
2023-03-26T15:26:17.760Z,60.37
2023-03-26T15:28:56.124Z,57.81
2023-03-26T15:31:55.111Z,57.76
2023-03-26T15:34:50.338Z,57.33
2023-03-26T15:37:38.540Z,55.57
2023-03-26T15:40:13.837Z,55.01
2023-03-26T15:42:46.362Z,55.13
2023-03-26T15:45:26.346Z,55.69
2023-03-26T15:48:11.251Z,55.22
2023-03-26T15:50:53.714Z,51.20
2023-03-26T15:53:42.844Z,50.41
2023-03-26T15:56:41.307Z,48.70
2023-03-26T15:59:10.745Z,43.36
2023-03-26T16:02:00.398Z,40.69
2023-03-26T16:04:50.066Z,40.86
2023-03-26T16:07:39.855Z,40.10
2023-03-26T16:10:25.277Z,39.98
2023-03-26T16:13:16.851Z,39.73
2023-03-26T16:15:53.215Z,38.93
2023-03-26T16:18:35.099Z,38.19
2023-03-26T16:21:31.686Z,39.36
2023-03-26T16:24:02.075Z,40.16
2023-03-26T16:26:31.394Z,40.81
2023-03-26T16:29:21.263Z,41.22
2023-03-26T16:32:18.616Z,41.90
2023-03-26T16:34:58.435Z,42.90
2023-03-26T16:37:50.209Z,42.69
2023-03-26T16:40:16.663Z,43.40
2023-03-26T16:43:16.597Z,43.56
2023-03-26T16:46:08.434Z,44.64
2023-03-26T16:48:34.886Z,44.47
2023-03-26T16:51:40.945Z,44.67
2023-03-26T16:54:33.423Z,44.68
2023-03-26T16:57:30.535Z,45.95
2023-03-26T17:00:07.394Z,47.02
2023-03-26T17:02:34.148Z,47.91
2023-03-26T17:05:23.728Z,47.99
2023-03-26T17:08:16.077Z,49.67
2023-03-26T17:10:55.463Z,52.41
2023-03-26T17:13:47.431Z,54.13
2023-03-26T17:16:33.458Z,56.17
2023-03-26T17:19:24.420Z,55.53
2023-03-26T17:21:56.601Z,55.26
2023-03-26T17:24:51.484Z,55.39
2023-03-26T17:27:28.755Z,55.99
2023-03-26T17:30:23.360Z,55.19
2023-03-26T17:33:01.449Z,55.35
2023-03-26T17:35:36.327Z,54.78
2023-03-26T17:38:04.347Z,53.80
2023-03-26T17:40:46.485Z,53.82
2023-03-26T17:43:35.306Z,53.99
2023-03-26T17:46:26.997Z,54.43
2023-03-26T17:49:07.386Z,54.70
2023-03-26T17:51:46.249Z,55.00
2023-03-26T17:54:38.070Z,54.95
2023-03-26T17:57:25.076Z,54.45
2023-03-26T17:59:57.604Z,53.81
2023-03-26T18:02:41.501Z,53.50
2023-03-26T18:05:12.276Z,53.33
2023-03-26T18:08:13.149Z,51.45
2023-03-26T18:10:58.261Z,51.26
2023-03-26T18:13:30.604Z,51.28
2023-03-26T18:16:39.108Z,52.09
2023-03-26T18:19:16.605Z,53.87
2023-03-26T18:21:44.100Z,56.75
2023-03-26T18:24:17.893Z,62.11
2023-03-26T18:26:51.481Z,66.90
2023-03-26T18:29:22.277Z,71.90
2023-03-26T18:32:08.616Z,76.30
2023-03-26T18:34:39.868Z,77.46
2023-03-26T18:37:21.436Z,76.83
2023-03-26T18:40:01.477Z,78.23
2023-03-26T18:42:32.308Z,78.51
2023-03-26T18:45:07.677Z,77.61
2023-03-26T18:47:34.341Z,77.09
2023-03-26T18:50:01.070Z,76.58
2023-03-26T18:52:29.609Z,75.47
2023-03-26T18:54:58.166Z,76.21
2023-03-26T18:57:29.515Z,74.49
2023-03-26T19:00:15.289Z,73.36
2023-03-26T19:02:42.405Z,73.92
2023-03-26T19:05:15.331Z,74.45
2023-03-26T19:07:43.921Z,73.55
2023-03-26T19:10:17.004Z,73.79
2023-03-26T19:12:43.562Z,71.33
2023-03-26T19:15:14.630Z,70.66
2023-03-26T19:17:48.283Z,72.17
2023-03-26T19:20:22.425Z,71.71
2023-03-26T19:22:50.648Z,71.38
2023-03-26T19:25:24.283Z,72.44
2023-03-26T19:27:51.409Z,74.71
2023-03-26T19:30:28.852Z,73.52
2023-03-26T19:32:55.783Z,72.85
2023-03-26T19:35:41.906Z,74.92
2023-03-26T19:38:25.023Z,76.57
2023-03-26T19:40:55.477Z,76.73
2023-03-26T19:43:24.363Z,74.71
2023-03-26T19:46:00.016Z,78.33
2023-03-26T19:48:46.598Z,78.01
2023-03-26T19:51:36.672Z,77.87
2023-03-26T19:54:13.470Z,77.94
2023-03-26T19:56:39.996Z,78.48
2023-03-26T19:59:06.483Z,78.85
2023-03-26T20:01:33.312Z,78.59
2023-03-26T20:04:04.074Z,77.67
2023-03-26T20:06:42.574Z,76.52
2023-03-26T20:09:11.683Z,75.77
2023-03-26T20:11:39.012Z,75.06
2023-03-26T20:14:18.198Z,74.58
2023-03-26T20:16:45.802Z,73.58
2023-03-26T20:19:14.307Z,73.37
2023-03-26T20:21:42.065Z,72.92
2023-03-26T20:24:15.660Z,75.07
2023-03-26T20:26:42.952Z,69.17
2023-03-26T20:29:09.605Z,70.60
2023-03-26T20:31:36.249Z,71.68
2023-03-26T20:34:02.877Z,72.17
2023-03-26T20:36:33.900Z,71.25
2023-03-26T20:39:03.732Z,72.42
2023-03-26T20:41:30.362Z,71.71
2023-03-26T20:43:56.932Z,71.31
2023-03-26T20:46:31.175Z,69.64
2023-03-26T20:48:58.964Z,69.65
2023-03-26T20:51:25.839Z,68.36
2023-03-26T20:53:52.426Z,70.54
2023-03-26T20:56:21.473Z,70.47
2023-03-26T20:58:52.583Z,69.88
2023-03-26T21:01:24.278Z,68.06
2023-03-26T21:03:50.799Z,68.54
2023-03-26T21:06:17.277Z,69.00
2023-03-26T21:08:44.661Z,69.38
2023-03-26T21:11:26.538Z,69.77
2023-03-26T21:14:09.190Z,70.33
2023-03-26T21:16:36.047Z,70.81
2023-03-26T21:19:02.823Z,72.00
2023-03-26T21:21:43.404Z,71.98
2023-03-26T21:24:33.646Z,70.95
2023-03-26T21:27:17.081Z,70.37
2023-03-26T21:29:43.806Z,71.05
2023-03-26T21:32:11.283Z,71.40
2023-03-26T21:34:42.107Z,70.38
2023-03-26T21:37:15.916Z,69.79
2023-03-26T21:39:42.560Z,69.33
2023-03-26T21:42:11.188Z,70.14
2023-03-26T21:44:38.481Z,70.58
2023-03-26T21:47:05.849Z,71.18
2023-03-26T21:49:33.471Z,70.24
2023-03-26T21:52:00.267Z,71.84
2023-03-26T21:54:30.070Z,71.25
2023-03-26T21:57:31.977Z,70.46
2023-03-26T22:00:00.971Z,71.30
2023-03-26T22:02:39.063Z,70.33
2023-03-26T22:05:24.448Z,68.84
2023-03-26T22:07:54.788Z,70.01
2023-03-26T22:10:21.765Z,69.88
2023-03-26T22:12:48.607Z,68.27
2023-03-26T22:15:15.393Z,67.77
2023-03-26T22:17:42.030Z,69.29
2023-03-26T22:20:14.342Z,70.36
2023-03-26T22:22:42.503Z,69.41
2023-03-26T22:25:09.095Z,70.99
2023-03-26T22:27:44.105Z,67.95
2023-03-26T22:30:12.910Z,68.54
2023-03-26T22:32:40.160Z,69.85
2023-03-26T22:35:07.217Z,68.34
2023-03-26T22:37:34.288Z,69.65
2023-03-26T22:40:00.933Z,69.54
2023-03-26T22:42:27.524Z,69.08
2023-03-26T22:44:54.020Z,70.37
2023-03-26T22:47:20.557Z,70.18
2023-03-26T22:49:47.139Z,70.74
2023-03-26T22:52:13.616Z,70.35
2023-03-26T22:54:40.156Z,71.26
2023-03-26T22:57:06.667Z,70.51
2023-03-26T22:59:33.181Z,69.15
2023-03-26T23:01:59.687Z,68.04
2023-03-26T23:04:30.508Z,67.86
2023-03-26T23:06:57.503Z,68.71
2023-03-26T23:09:23.981Z,68.01
2023-03-26T23:11:50.597Z,68.15
2023-03-26T23:14:17.165Z,67.41
2023-03-26T23:16:43.637Z,68.39
2023-03-26T23:19:10.204Z,67.60
2023-03-26T23:21:36.702Z,68.19
2023-03-26T23:24:03.332Z,68.47
2023-03-26T23:26:34.962Z,68.27
2023-03-26T23:29:04.459Z,68.88
2023-03-26T23:31:31.152Z,68.95
2023-03-26T23:33:57.990Z,68.41
2023-03-26T23:36:25.673Z,68.74
2023-03-26T23:38:52.299Z,69.03
2023-03-26T23:41:21.959Z,68.98
2023-03-26T23:43:53.954Z,68.34
2023-03-26T23:46:24.384Z,67.62
2023-03-26T23:48:51.467Z,68.23
2023-03-26T23:51:19.059Z,67.71
2023-03-26T23:53:47.094Z,67.86
2023-03-26T23:56:13.735Z,68.02
2023-03-26T23:58:40.191Z,68.76
